Aviation Digital Data Service (ADDS)

Output produced by METARs form (2155 UTC 19 February 2018)
found at http://www.aviationweather.gov/adds/metars/
 
FQBR 192100Z /////KT 9999 SCT018 27/25 Q1007
TAF FQBR 192200Z 2000/2106 03010KT 9999 BKN020 FEW025CB 
     PROB30 
     TEMPO 2000/2006 4000 TSRA SCT015 BKN020 FEW025CB 
     BECMG 2012/2014 10012KT SCT020 BKN025 FEW030CB 
     BECMG 2100/2102 16014KT TX30/2013Z TN25/2003Z
       
FQCH 192100Z VRB02KT 9999 SCT010 BKN015 21/21 Q1017
TAF FQCH 192200Z 2000/2100 02006KT 9999 BKN015 FEW020CB 
     PROB30 
     TEMPO 2000/2006 5000 TSRA SCT010 BKN015 FEW020CB 
     BECMG 2006/2008 VRB02KT BKN018 
     BECMG 2012/2014 19010KT 
     BECMG 2018/2020 08010KT TX28/2013Z TN21/2003Z
       
TAF FQIN 192200Z 2000/2100 04008KT 9999 BKN020 FEW025CB 
     PROB30 
     TEMPO 2000/2006 5000 -TSRA SCT015 BKN020 FEW025CB 
     BECMG 2006/2008 12008KT BKN020 TX30/2013Z TN25/2003Z
       
TAF FQLC 192200Z 2000/2100 08008KT 9999 BKN015 FEW020CB 
     BECMG 2006/2008 02007KT SCT015 
     PROB30 
     TEMPO 2006/2012 5000 -RADZ SCT010 BKN015 FEW025CB 
     BECMG 2018/2020 17006KT BKN015 TX27/2013Z TN18/2003Z
       
FQMA 192100Z 15003KT 9999 BKN025 27/24 Q1013 NOSIG
TAF FQMA 192200Z 2000/2106 17010KT 9999 BKN020 
     PROB30 
     TEMPO 2000/2006 4000 TSRA SCT015 BKN020 FEW025CB 
     BECMG 2012/2014 11012KT SCT020 
     BECMG 2018/2020 19008KT BKN020 
     BECMG 2100/2102 12010KT TX29/2013Z TN24/2003Z
       
TAF FQNC 192200Z 2000/2100 VRB03KT 9999 BKN020 FEW025CB 
     BECMG 2006/2008 03008KT BKN020 
     PROB30 
     TEMPO 2006/2012 5000 TSRA SCT015 BKN020 FEW025CB 
     BECMG 2012/2014 09012KT SCT020 
     BECMG 2018/2020 16008KT TX32/2013Z TN23/2003Z
       
FQNP 191800Z 13004KT 9999 SCT020 FEW025CB 28/23 Q1012 RMK VC TS CB TO NW/W
TAF FQNP 192200Z 2000/2106 VRB03KT 9999 BKN020 FEW025CB 
     BECMG 2006/2008 03008KT BKN020 
     PROB30 
     TEMPO 2006/2012 5000 TSRA SCT015 BKN020 FEW025CB 
     BECMG 2012/2014 09012KT SCT020 
     BECMG 2018/2020 16008KT 
     BECMG 2100/2102 07006KT TX32/2013Z TN23/2003Z
       
TAF FQPB 192200Z 2000/2100 VRB03KT 9999 BKN020 
     BECMG 2012/2014 09006KT BKN020 
     PROB30 
     TEMPO 2012/2018 5000 -RADZ SCT010 BKN018 FEW025CB TX32/2013Z TN25/2003Z
       
FQQL 192000Z 05002KT 9999 FEW020 SCT/// 26/25 Q1012
TAF FQQL 192200Z 2000/2100 05008KT 9999 BKN020 FEW025CB 
     BECMG 2006/2008 11008KT 
     PROB30 
     TEMPO 2006/2012 5000 TSRA SCT015 BKN020 FEW025CB 
     BECMG 2012/2014 17012KT BKN020 
     BECMG 2018/2020 23008KT TX32/2013Z TN25/2003Z
       
TAF FQTT 192200Z 2000/2100 VRB02KT 9999 BKN020 FEW025CB 
     PROB30 
     TEMPO 2000/2006 5000 -TSRA SCT015 BKN020 FEW025CB 
     BECMG 2006/2008 17008KT BKN020 
     BECMG 2012/2014 12012KT 
     BECMG 2018/2020 19008KT TX35/2013Z TN25/2003Z
       
FQVL 191600Z 07006KT 030V110 9999 FEW020 SCT/// 28/24 Q1010
TAF FQVL 192200Z 2000/2100 08008KT 9999 BKN020 FEW025CB 
     PROB30 
     TEMPO 2000/2006 5000 -TSRA SCT015 BKN020 FEW025CB 
     BECMG 2018/2020 17012KT BKN020 TX29/2013Z TN25/2003Z